Munising, MI

6:26 AM EST on January 30, 2015 (GMT -0500)
RAWS MUNISING MI US | Change Station
CLOSE
Current Station
Personal Weather Station
Location: Munising, MI
Elevation: 771 ft
Nearby Weather Stations
Active Advisory: Special Statement

Elev 771 ft 46.43 °N, 86.62 °W | Updated 27 minutes ago

Overcast
Overcast
12 °F
Feels Like 5 °F
N
4
Wind Variable Wind from WNW
Gusts 9.0 mph

Today
High -- | Low -- °F
--% Chance of Precip.
Yesterday
High -- | Low -- °F
Precip. -- in
8:12 AM 5:47 PM
Waxing Gibbous, 82% visible
Pressure 30.39 in
Visibility 7.0 miles
Clouds Overcast 2300 ft
Windchill 5 °F
Dew Point 7 °F
Humidity 80%
Rainfall -999.00 in
Snow Depth Not available.
UV 0 out of 12
Pollen .10 out of 12
Air Quality Not available.
Flu Activity Not available.
METAR KSAW 301057Z AUTO 33005KT 7SM -SN OVC023 M12/M16 A3039 RMK AO2 T11251156

More Conditions Fewer Conditions

Pressure 30.39 in
Visibility 7.0 miles
Clouds Overcast 2300 ft
Windchill 5 °F
Dew Point 7 °F
Humidity 80%
Rainfall -999.00 in
Snow Depth Not available.
UV 0 out of 12
Pollen .10 out of 12
Air Quality Not available.
Flu Activity Not available.
METAR KSAW 301057Z AUTO 33005KT 7SM -SN OVC023 M12/M16 A3039 RMK AO2 T11251156

More Conditions Fewer Conditions

10-Day Weather Forecast

Almanac

Astronomy

Jan. 30, 2015 Rise Set
Actual Time
Civil Twilight
Nautical Twilight
Astronomical Twilight
Moon
Length of Visible Light
Length of Day
Tomorrow will be .
, % of the Moon is Illuminated

Today's Extremes

State Highs State Lows

Community

WunderPhotos

Upload Photos

1,791,737 photos uploaded!

WunderBlogs® & News

Nearby

Air Quality

  Air Quality AQ Index Pollutant
Not available.

Snow Depth

Station Depth Elevation

Earthquake Activity

City Distance Mag. Time & Date
Minimum magnitude displayed is 2.5.

Coastal Water Temperatures

Place Temperature

Nearby Weather Stations